FAB1322 SBYS-SBYS

Flight info

Callsign FAB1322
Flight time 0h 43m
Altitude FL110
Route DCT
Aircraft TUCA/L-S/N

Departure

Time 2026-04-21 23:38
Airport Campo Fontenelle (SBYS)

Arrival

Time 2026-04-22 00:21
Airport Campo Fontenelle (SBYS)
Time Latitude Longitude Altitude Speed Heading
2026-04-21 23:24 -21.98113 -47.33945 1973 ft 0 kts 266°
2026-04-21 23:25 -21.98113 -47.33946 1973 ft 0 kts 266°
2026-04-21 23:27 -21.98113 -47.33947 1973 ft 0 kts 266°
2026-04-21 23:29 -21.98113 -47.33948 1973 ft 0 kts 266°
2026-04-21 23:29 -21.98101 -47.33964 1973 ft 7 kts 357°
2026-04-21 23:30 -21.98043 -47.33979 1973 ft 10 kts
2026-04-21 23:30 -21.97985 -47.33979 1973 ft 6 kts
2026-04-21 23:30 -21.97955 -47.34005 1973 ft 9 kts 349°
2026-04-21 23:30 -21.97862 -47.34006 1973 ft 15 kts
2026-04-21 23:31 -21.97775 -47.34006 1973 ft 13 kts
2026-04-21 23:31 -21.97677 -47.34006 1973 ft 14 kts 360°
2026-04-21 23:31 -21.97582 -47.34008 1973 ft 9 kts 338°
2026-04-21 23:31 -21.97570 -47.34028 1973 ft 0 kts 267°
2026-04-21 23:32 -21.97570 -47.34032 1973 ft 0 kts 267°
2026-04-21 23:33 -21.97570 -47.34023 1973 ft 2 kts 267°
2026-04-21 23:33 -21.97570 -47.34022 1973 ft 0 kts 267°
2026-04-21 23:33 -21.97570 -47.34023 1973 ft 0 kts 267°
2026-04-21 23:34 -21.97570 -47.34029 1973 ft 5 kts 267°
2026-04-21 23:34 -21.97576 -47.34104 1973 ft 9 kts 239°
2026-04-21 23:34 -21.97629 -47.34119 1973 ft 4 kts 181°
2026-04-21 23:35 -21.97638 -47.34119 1973 ft 0 kts 180°
2026-04-21 23:35 -21.97639 -47.34119 1973 ft 0 kts 180°
2026-04-21 23:36 -21.97640 -47.34119 1973 ft 0 kts 180°
2026-04-21 23:37 -21.97641 -47.34119 1973 ft 0 kts 180°
2026-04-21 23:37 -21.97684 -47.34119 1973 ft 31 kts 178°
2026-04-21 23:37 -21.98100 -47.34116 1973 ft 82 kts 180°
2026-04-21 23:37 -21.98782 -47.34118 2013 ft 109 kts 180°
2026-04-21 23:38 -21.99565 -47.34119 2145 ft 118 kts 180°
2026-04-21 23:38 -22.00405 -47.34121 2307 ft 124 kts 181°
2026-04-21 23:38 -22.01268 -47.34321 2467 ft 134 kts 214°
2026-04-21 23:38 -22.01688 -47.35155 2733 ft 130 kts 264°
2026-04-21 23:39 -22.01689 -47.36135 3074 ft 135 kts 270°
2026-04-21 23:39 -22.01670 -47.37272 3456 ft 168 kts 271°
2026-04-21 23:39 -22.01635 -47.38548 3868 ft 163 kts 272°
2026-04-21 23:39 -22.01555 -47.39635 4291 ft 137 kts 276°
2026-04-21 23:40 -22.01455 -47.40683 4639 ft 145 kts 276°
2026-04-21 23:40 -22.01303 -47.41797 5029 ft 154 kts 279°
2026-04-21 23:40 -22.01097 -47.42985 5351 ft 166 kts 282°
2026-04-21 23:40 -22.00917 -47.44208 5634 ft 164 kts 270°
2026-04-21 23:41 -22.01068 -47.45368 6021 ft 148 kts 265°
2026-04-21 23:41 -22.01207 -47.46463 6286 ft 154 kts 264°
2026-04-21 23:41 -22.01426 -47.47621 6402 ft 162 kts 261°
2026-04-21 23:41 -22.01620 -47.48793 6698 ft 156 kts 262°
2026-04-21 23:42 -22.01751 -47.49942 6895 ft 155 kts 265°
2026-04-21 23:42 -22.01824 -47.51085 7151 ft 152 kts 267°
2026-04-21 23:42 -22.01870 -47.52272 7192 ft 162 kts 269°
2026-04-21 23:42 -22.01848 -47.53449 7542 ft 153 kts 271°
2026-04-21 23:43 -22.01754 -47.54600 7793 ft 156 kts 279°
2026-04-21 23:43 -22.01392 -47.55711 8000 ft 161 kts 294°
2026-04-21 23:43 -22.00757 -47.56718 8218 ft 164 kts 303°
2026-04-21 23:43 -22.00054 -47.57677 8500 ft 163 kts 303°
2026-04-21 23:44 -21.99379 -47.58667 8624 ft 168 kts 302°
2026-04-21 23:44 -21.98698 -47.59682 8743 ft 168 kts 303°
2026-04-21 23:44 -21.97988 -47.60680 8852 ft 169 kts 305°
2026-04-21 23:44 -21.97102 -47.61525 8954 ft 177 kts 324°
2026-04-21 23:45 -21.95909 -47.61885 9018 ft 189 kts 351°
2026-04-21 23:45 -21.93385 -47.61846 9142 ft 186 kts 354°
2026-04-21 23:45 -21.92144 -47.62014 9043 ft 183 kts 336°
2026-04-21 23:46 -21.91095 -47.62687 9014 ft 176 kts 310°
2026-04-21 23:46 -21.90545 -47.63870 8888 ft 181 kts 280°
2026-04-21 23:46 -21.90688 -47.65214 8708 ft 192 kts 246°
2026-04-21 23:46 -21.91691 -47.66190 8654 ft 203 kts 208°
2026-04-21 23:47 -21.93117 -47.66316 8707 ft 211 kts 181°
2026-04-21 23:47 -21.94522 -47.66192 8753 ft 207 kts 181°
2026-04-21 23:47 -21.95773 -47.66058 8871 ft 197 kts 180°
2026-04-21 23:47 -21.96980 -47.65985 8800 ft 194 kts 185°
2026-04-21 23:48 -21.98243 -47.66007 8642 ft 194 kts 185°
2026-04-21 23:48 -21.99445 -47.65530 8326 ft 208 kts 144°
2026-04-21 23:48 -22.00070 -47.64246 7988 ft 215 kts 99°
2026-04-21 23:48 -21.99909 -47.62817 7769 ft 212 kts 79°
2026-04-21 23:49 -21.99821 -47.61407 7842 ft 195 kts 85°
2026-04-21 23:49 -21.99664 -47.60029 7681 ft 190 kts 83°
2026-04-21 23:49 -21.99539 -47.58648 7575 ft 182 kts 83°
2026-04-21 23:49 -21.99437 -47.57322 7584 ft 177 kts 86°
2026-04-21 23:50 -21.99333 -47.55994 7529 ft 178 kts 83°
2026-04-21 23:50 -21.99213 -47.54679 7566 ft 175 kts 82°
2026-04-21 23:50 -21.99080 -47.53370 7576 ft 180 kts 84°
2026-04-21 23:50 -21.98984 -47.52021 7601 ft 180 kts 84°
2026-04-21 23:51 -21.98877 -47.50675 7630 ft 180 kts 84°
2026-04-21 23:51 -21.98778 -47.49318 7632 ft 183 kts 85°
2026-04-21 23:51 -21.98720 -47.47944 7643 ft 184 kts 89°
2026-04-21 23:51 -21.98685 -47.46593 7610 ft 182 kts 87°
2026-04-21 23:52 -21.98627 -47.45281 7707 ft 171 kts 86°
2026-04-21 23:52 -21.98532 -47.44008 7748 ft 170 kts 84°
2026-04-21 23:52 -21.98401 -47.42714 7768 ft 177 kts 82°
2026-04-21 23:52 -21.98236 -47.41348 7650 ft 189 kts 83°
2026-04-21 23:53 -21.98135 -47.39958 7759 ft 182 kts 85°
2026-04-21 23:53 -21.98045 -47.38630 7756 ft 177 kts 86°
2026-04-21 23:53 -21.97970 -47.37271 7398 ft 194 kts 86°
2026-04-21 23:53 -21.97871 -47.35707 6752 ft 223 kts 86°
2026-04-21 23:54 -21.97836 -47.34491 7703 ft 20 kts 262°
2026-04-21 23:54 -21.97920 -47.34551 5952 ft 227 kts 92°
2026-04-21 23:54 -21.98095 -47.33115 5901 ft 242 kts 95°
2026-04-21 23:54 -21.97757 -47.31941 6246 ft 203 kts 52°
2026-04-21 23:55 -21.96918 -47.30805 6138 ft 204 kts 54°
2026-04-21 23:55 -21.96163 -47.29513 6165 ft 210 kts 55°
2026-04-21 23:55 -21.95405 -47.28178 6254 ft 209 kts 55°
2026-04-21 23:55 -21.94655 -47.26835 6283 ft 212 kts 56°
2026-04-21 23:56 -21.93898 -47.25469 6294 ft 214 kts 56°
2026-04-21 23:56 -21.93142 -47.24097 6387 ft 212 kts 56°
2026-04-21 23:56 -21.92388 -47.22727 6428 ft 214 kts 56°
2026-04-21 23:56 -21.91696 -47.21458 7121 ft 189 kts 56°
2026-04-21 23:57 -21.91012 -47.20201 7212 ft 203 kts 57°
2026-04-21 23:57 -21.90302 -47.18848 7262 ft 208 kts 58°
2026-04-21 23:57 -21.89615 -47.17518 7361 ft 201 kts 57°
2026-04-21 23:57 -21.88914 -47.16208 7336 ft 203 kts 57°
2026-04-21 23:58 -21.88214 -47.14896 7300 ft 201 kts 57°
2026-04-21 23:58 -21.87965 -47.14427 7271 ft 199 kts 57°
2026-04-21 23:58 -21.87826 -47.14163 7263 ft 198 kts 58°
2026-04-21 23:59 -21.87453 -47.13325 7249 ft 196 kts 64°
2026-04-21 23:59 -21.86862 -47.12100 7148 ft 194 kts 52°
2026-04-21 23:59 -21.85958 -47.11052 7058 ft 190 kts 34°
2026-04-21 23:59 -21.84830 -47.10414 7049 ft 182 kts 12°
2026-04-22 00:00 -21.83575 -47.10219 6908 ft 184 kts 357°
2026-04-22 00:00 -21.82308 -47.10339 6725 ft 184 kts 340°
2026-04-22 00:00 -21.81197 -47.10981 6474 ft 181 kts 315°
2026-04-22 00:00 -21.80519 -47.12053 6432 ft 169 kts 292°
2026-04-22 00:01 -21.80280 -47.13252 6439 ft 162 kts 275°
2026-04-22 00:01 -21.80341 -47.14479 6268 ft 170 kts 264°
2026-04-22 00:01 -21.80621 -47.15741 6038 ft 178 kts 253°
2026-04-22 00:01 -21.81018 -47.16989 5953 ft 174 kts 251°
2026-04-22 00:02 -21.81464 -47.18197 5840 ft 176 kts 249°
2026-04-22 00:02 -21.82029 -47.19394 5632 ft 181 kts 239°
2026-04-22 00:02 -21.82750 -47.20455 5691 ft 173 kts 230°
2026-04-22 00:02 -21.83585 -47.21375 5659 ft 174 kts 224°
2026-04-22 00:03 -21.84483 -47.22196 5852 ft 161 kts 220°
2026-04-22 00:03 -21.85344 -47.22879 6137 ft 148 kts 219°
2026-04-22 00:03 -21.86182 -47.23475 6357 ft 142 kts 218°
2026-04-22 00:03 -21.87007 -47.24020 6568 ft 136 kts 217°
2026-04-22 00:04 -21.87797 -47.24515 6824 ft 129 kts 217°
2026-04-22 00:04 -21.88575 -47.24992 6955 ft 132 kts 217°
2026-04-22 00:04 -21.89395 -47.25499 6992 ft 139 kts 217°
2026-04-22 00:04 -21.90240 -47.26024 7058 ft 141 kts 217°
2026-04-22 00:05 -21.91096 -47.26557 7106 ft 144 kts 217°
2026-04-22 00:05 -21.91981 -47.27115 6955 ft 158 kts 217°
2026-04-22 00:05 -21.93012 -47.27789 6301 ft 188 kts 216°
2026-04-22 00:05 -21.93885 -47.28368 7073 ft 40 kts 31°
2026-04-22 00:06 -21.93610 -47.28120 6651 ft 39 kts 197°
2026-04-22 00:06 -21.94245 -47.29232 4924 ft 218 kts 248°
2026-04-22 00:06 -21.94917 -47.30522 5090 ft 184 kts 240°
2026-04-22 00:06 -21.95481 -47.31577 5385 ft 150 kts 240°
2026-04-22 00:07 -21.96035 -47.32594 5549 ft 164 kts 240°
2026-04-22 00:07 -21.96610 -47.33592 5992 ft 146 kts 242°
2026-04-22 00:07 -21.97061 -47.34520 6329 ft 140 kts 250°
2026-04-22 00:07 -21.97162 -47.35501 6861 ft 127 kts 282°
2026-04-22 00:08 -21.96504 -47.36267 7119 ft 161 kts 318°
2026-04-22 00:08 -21.95463 -47.36946 7220 ft 173 kts 323°
2026-04-22 00:08 -21.94420 -47.37618 7273 ft 184 kts 324°
2026-04-22 00:08 -21.93329 -47.38392 7255 ft 192 kts 315°
2026-04-22 00:09 -21.92311 -47.39325 7150 ft 195 kts 314°
2026-04-22 00:09 -21.91319 -47.40216 7144 ft 181 kts 316°
2026-04-22 00:09 -21.90350 -47.41033 7133 ft 177 kts 315°
2026-04-22 00:09 -21.89816 -47.42162 7135 ft 183 kts 274°
2026-04-22 00:10 -21.89452 -47.43443 6916 ft 208 kts 308°
2026-04-22 00:10 -21.88189 -47.43709 7045 ft 206 kts 13°
2026-04-22 00:10 -21.87089 -47.42719 6868 ft 215 kts 54°
2026-04-22 00:10 -21.86785 -47.41177 6761 ft 214 kts 97°
2026-04-22 00:11 -21.87314 -47.39731 6634 ft 203 kts 126°
2026-04-22 00:11 -21.88194 -47.38630 6613 ft 184 kts 140°
2026-04-22 00:11 -21.89103 -47.37772 6681 ft 167 kts 147°
2026-04-22 00:11 -21.90024 -47.37062 6641 ft 158 kts 153°
2026-04-22 00:12 -21.90908 -47.36459 6727 ft 144 kts 155°
2026-04-22 00:12 -21.91747 -47.35908 6710 ft 146 kts 156°
2026-04-22 00:12 -21.92789 -47.35293 5975 ft 198 kts 154°
2026-04-22 00:12 -21.93446 -47.34932 7017 ft 100 kts 336°
2026-04-22 00:13 -21.93468 -47.34648 4074 ft 265 kts 150°
2026-04-22 00:13 -21.94653 -47.34000 4608 ft 156 kts 154°
2026-04-22 00:13 -21.95609 -47.33511 5031 ft 149 kts 155°
2026-04-22 00:13 -21.96486 -47.33074 5066 ft 133 kts 155°
2026-04-22 00:14 -21.97345 -47.32660 4971 ft 144 kts 157°
2026-04-22 00:14 -21.98312 -47.32274 4887 ft 149 kts 162°
2026-04-22 00:14 -21.99305 -47.32042 4907 ft 145 kts 174°
2026-04-22 00:14 -22.00324 -47.32124 4807 ft 150 kts 194°
2026-04-22 00:15 -22.01274 -47.32596 4715 ft 152 kts 214°
2026-04-22 00:15 -22.02013 -47.33406 4642 ft 152 kts 235°
2026-04-22 00:15 -22.02439 -47.34429 4606 ft 150 kts 255°
2026-04-22 00:15 -22.02540 -47.35538 4552 ft 150 kts 274°
2026-04-22 00:16 -22.02285 -47.36629 4463 ft 152 kts 292°
2026-04-22 00:16 -22.01756 -47.37607 4395 ft 152 kts 306°
2026-04-22 00:16 -22.01052 -47.38452 4348 ft 151 kts 316°
2026-04-22 00:16 -22.00266 -47.39202 4209 ft 153 kts 322°
2026-04-22 00:17 -21.99355 -47.39806 3979 ft 154 kts 333°
2026-04-22 00:17 -21.98382 -47.40266 3824 ft 152 kts 339°
2026-04-22 00:17 -21.97381 -47.40565 3703 ft 148 kts 351°
2026-04-22 00:17 -21.96351 -47.40544 3517 ft 150 kts
2026-04-22 00:18 -21.95358 -47.40257 3399 ft 146 kts 19°
2026-04-22 00:18 -21.94445 -47.39819 3283 ft 144 kts 28°
2026-04-22 00:18 -21.93595 -47.39237 3127 ft 145 kts 35°
2026-04-22 00:18 -21.92858 -47.38511 2998 ft 142 kts 49°
2026-04-22 00:19 -21.92295 -47.37672 2965 ft 135 kts 59°
2026-04-22 00:19 -21.91883 -47.36776 2886 ft 135 kts 70°
2026-04-22 00:19 -21.91753 -47.35784 2821 ft 134 kts 97°
2026-04-22 00:19 -21.92204 -47.34967 2820 ft 129 kts 139°
2026-04-22 00:20 -21.92931 -47.34429 2822 ft 126 kts 152°
2026-04-22 00:20 -21.93767 -47.34173 2775 ft 126 kts 175°
2026-04-22 00:20 -21.94633 -47.34147 2695 ft 125 kts 180°
2026-04-22 00:20 -21.95510 -47.34151 2441 ft 128 kts 179°
2026-04-22 00:21 -21.96387 -47.34131 2217 ft 121 kts 179°
2026-04-22 00:21 -21.97164 -47.34114 2050 ft 103 kts 179°
2026-04-22 00:21 -21.97797 -47.34108 1973 ft 77 kts 180°
2026-04-22 00:21 -21.98163 -47.34113 1973 ft 39 kts 183°
2026-04-22 00:22 -21.98387 -47.34122 1973 ft 18 kts 164°
2026-04-22 00:22 -21.98413 -47.34032 1973 ft 13 kts 90°
2026-04-22 00:22 -21.98409 -47.33967 1973 ft 6 kts 46°
2026-04-22 00:22 -21.98379 -47.33962 1973 ft 9 kts 357°
2026-04-22 00:23 -21.98327 -47.33962 1973 ft 10 kts 359°
2026-04-22 00:23 -21.98272 -47.33963 1973 ft 10 kts 360°
2026-04-22 00:23 -21.98240 -47.33963 1973 ft 0 kts
2026-04-22 00:24 -21.98210 -47.33963 1973 ft 7 kts
2026-04-22 00:24 -21.98157 -47.33928 1973 ft 8 kts 25°
2026-04-22 00:25 -21.98113 -47.33924 1973 ft 6 kts
2026-04-22 00:25 -21.98086 -47.33938 1973 ft 6 kts 307°
2026-04-22 00:25 -21.98083 -47.33960 1973 ft 0 kts 271°
2026-04-22 00:25 -21.98083 -47.33962 1973 ft 1 kts 271°
2026-04-22 00:26 -21.98083 -47.33963 1973 ft 0 kts 271°